createdAt,value
2022-09-14T00:01:34.844Z,12.24
2022-09-14T00:04:11.063Z,12.20
2022-09-14T00:06:39.015Z,12.17
2022-09-14T00:09:07.103Z,12.17
2022-09-14T00:11:36.309Z,12.17
2022-09-14T00:14:03.970Z,12.11
2022-09-14T00:16:38.955Z,12.10
2022-09-14T00:19:25.860Z,12.06
2022-09-14T00:21:57.914Z,11.99
2022-09-14T00:24:27.386Z,11.96
2022-09-14T00:26:54.268Z,11.98
2022-09-14T00:29:21.207Z,11.90
2022-09-14T00:31:48.076Z,11.85
2022-09-14T00:34:17.217Z,11.82
2022-09-14T00:36:47.651Z,11.78
2022-09-14T00:39:15.928Z,11.74
2022-09-14T00:41:46.525Z,11.77
2022-09-14T00:44:13.495Z,11.66
2022-09-14T00:46:49.863Z,11.66
2022-09-14T00:49:52.199Z,11.45
2022-09-14T00:52:30.010Z,11.38
2022-09-14T00:55:00.078Z,11.36
2022-09-14T00:57:32.330Z,11.36
2022-09-14T01:00:00.059Z,11.37
2022-09-14T01:02:28.691Z,11.35
2022-09-14T01:04:56.234Z,11.34
2022-09-14T01:07:36.936Z,11.27
2022-09-14T01:10:48.151Z,11.26
2022-09-14T01:13:36.180Z,11.26
2022-09-14T01:16:26.214Z,11.21
2022-09-14T01:19:02.538Z,11.17
2022-09-14T01:21:34.164Z,11.17
2022-09-14T01:24:42.442Z,11.10
2022-09-14T01:27:44.107Z,11.00
2022-09-14T01:30:21.690Z,10.94
2022-09-14T01:33:02.166Z,10.89
2022-09-14T01:35:54.842Z,10.91
2022-09-14T01:38:37.970Z,10.83
2022-09-14T01:41:10.643Z,10.89
2022-09-14T01:43:54.214Z,10.81
2022-09-14T01:46:30.026Z,10.81
2022-09-14T01:49:06.264Z,10.72
2022-09-14T01:51:42.118Z,10.63
2022-09-14T01:54:20.658Z,10.55
2022-09-14T01:57:00.312Z,10.58
2022-09-14T01:59:33.881Z,10.56
2022-09-14T02:02:16.217Z,10.52
2022-09-14T02:05:11.540Z,10.47
2022-09-14T02:07:39.617Z,10.49
2022-09-14T02:10:11.903Z,10.46
2022-09-14T02:12:40.691Z,10.45
2022-09-14T02:15:11.880Z,10.39
2022-09-14T02:17:40.051Z,10.39
2022-09-14T02:20:20.973Z,10.36
2022-09-14T02:22:48.273Z,10.34
2022-09-14T02:25:15.203Z,10.29
2022-09-14T02:27:41.940Z,10.27
2022-09-14T02:30:09.704Z,10.26
2022-09-14T02:33:08.549Z,10.22
2022-09-14T02:35:42.355Z,10.23
2022-09-14T02:38:34.808Z,10.23
2022-09-14T02:41:23.191Z,10.18
2022-09-14T02:44:02.379Z,10.14
2022-09-14T02:46:47.238Z,10.02
2022-09-14T02:49:41.427Z,10.00
2022-09-14T02:52:18.980Z,9.97
2022-09-14T02:54:48.928Z,9.94
2022-09-14T02:57:16.245Z,9.95
2022-09-14T02:59:43.270Z,9.99
2022-09-14T03:02:10.134Z,9.97
2022-09-14T03:04:36.990Z,9.90
2022-09-14T03:07:04.109Z,9.91
2022-09-14T03:09:30.890Z,9.88
2022-09-14T03:11:57.643Z,9.85
2022-09-14T03:14:24.672Z,9.78
2022-09-14T03:16:51.447Z,9.84
2022-09-14T03:19:18.241Z,9.78
2022-09-14T03:21:45.072Z,9.75
2022-09-14T03:24:11.819Z,9.69
2022-09-14T03:26:39.412Z,9.65
2022-09-14T03:29:07.288Z,9.65
2022-09-14T03:31:34.617Z,9.60
2022-09-14T03:34:02.642Z,9.58
2022-09-14T03:36:31.882Z,9.61
2022-09-14T03:39:02.017Z,9.64
2022-09-14T03:41:29.364Z,9.65
2022-09-14T03:43:56.371Z,9.63
2022-09-14T03:46:25.464Z,9.64
2022-09-14T03:48:54.723Z,9.65
2022-09-14T03:51:22.251Z,9.70
2022-09-14T03:53:49.338Z,9.61
2022-09-14T03:56:19.607Z,9.52
2022-09-14T03:58:48.583Z,9.56
2022-09-14T04:01:21.878Z,9.55
2022-09-14T04:03:49.582Z,9.52
2022-09-14T04:06:17.731Z,9.43
2022-09-14T04:08:46.860Z,9.41
2022-09-14T04:11:23.691Z,9.34
2022-09-14T04:13:51.819Z,9.41
2022-09-14T04:16:21.243Z,9.43
2022-09-14T04:18:48.506Z,9.45
2022-09-14T04:21:19.852Z,9.51
2022-09-14T04:24:10.587Z,9.51
2022-09-14T04:26:34.398Z,9.59
2022-09-14T04:29:01.350Z,9.57
2022-09-14T04:31:28.535Z,9.57
2022-09-14T04:33:57.247Z,9.56
2022-09-14T04:36:29.484Z,9.57
2022-09-14T04:39:01.565Z,9.63
2022-09-14T04:41:30.387Z,9.62
2022-09-14T04:43:58.376Z,9.67
2022-09-14T04:46:39.213Z,9.53
2022-09-14T04:49:08.704Z,9.50
2022-09-14T04:51:37.707Z,9.56
2022-09-14T04:54:07.538Z,9.48
2022-09-14T04:56:37.212Z,9.41
2022-09-14T04:59:05.860Z,9.40
2022-09-14T05:01:39.459Z,9.39
2022-09-14T05:04:08.728Z,9.43
2022-09-14T05:06:39.447Z,9.52
2022-09-14T05:09:13.289Z,9.55
2022-09-14T05:11:40.602Z,9.63
2022-09-14T05:14:07.620Z,9.62
2022-09-14T05:16:37.606Z,9.72
2022-09-14T05:19:08.070Z,9.74
2022-09-14T05:21:37.232Z,9.80
2022-09-14T05:24:12.409Z,9.84
2022-09-14T05:26:39.530Z,9.99
2022-09-14T05:29:06.475Z,9.97
2022-09-14T05:31:33.396Z,10.00
2022-09-14T05:34:00.948Z,10.06
2022-09-14T05:36:27.789Z,10.09
2022-09-14T05:38:54.978Z,10.13
2022-09-14T05:41:22.065Z,10.17
2022-09-14T05:43:48.878Z,10.14
2022-09-14T05:46:22.451Z,10.15
2022-09-14T05:48:51.956Z,10.20
2022-09-14T05:51:22.698Z,10.23
2022-09-14T05:53:55.889Z,10.21
2022-09-14T05:56:25.698Z,10.20
2022-09-14T05:58:53.503Z,10.25
2022-09-14T06:01:27.463Z,10.29
2022-09-14T06:03:57.064Z,10.30
2022-09-14T06:06:24.706Z,10.34
2022-09-14T06:08:54.281Z,10.36
2022-09-14T06:11:25.147Z,10.41
2022-09-14T06:13:52.818Z,10.46
2022-09-14T06:16:22.119Z,10.56
2022-09-14T06:18:50.054Z,10.58
2022-09-14T06:21:20.613Z,10.61
2022-09-14T06:23:49.073Z,10.67
2022-09-14T06:26:17.112Z,10.71
2022-09-14T06:28:44.465Z,10.82
2022-09-14T06:31:17.864Z,10.82
2022-09-14T06:33:46.456Z,10.92
2022-09-14T06:36:19.671Z,10.99
2022-09-14T06:38:49.902Z,11.12
2022-09-14T06:41:20.933Z,11.12
2022-09-14T06:43:49.039Z,11.18
2022-09-14T06:46:26.259Z,11.28
2022-09-14T06:48:58.527Z,11.27
2022-09-14T06:51:31.240Z,11.39
2022-09-14T06:54:00.510Z,11.50
2022-09-14T06:56:40.019Z,11.51
2022-09-14T06:59:10.567Z,11.62
2022-09-14T07:01:38.415Z,11.63
2022-09-14T07:04:06.366Z,11.74
2022-09-14T07:06:41.987Z,11.77
2022-09-14T07:09:09.161Z,11.87
2022-09-14T07:11:36.807Z,11.93
2022-09-14T07:14:03.690Z,12.03
2022-09-14T07:16:32.655Z,12.11
2022-09-14T07:19:03.771Z,12.12
2022-09-14T07:21:32.825Z,12.24
2022-09-14T07:23:59.908Z,12.29
2022-09-14T07:26:31.466Z,12.39
2022-09-14T07:29:03.721Z,12.51
2022-09-14T07:31:39.641Z,12.73
2022-09-14T07:34:06.769Z,12.81
2022-09-14T07:36:36.053Z,12.86
2022-09-14T07:39:08.501Z,13.01
2022-09-14T07:41:36.364Z,13.07
2022-09-14T07:44:06.724Z,13.14
2022-09-14T07:46:39.807Z,13.29
2022-09-14T07:49:08.570Z,13.39
2022-09-14T07:51:36.956Z,13.48
2022-09-14T07:54:06.222Z,13.57
2022-09-14T07:56:35.250Z,13.64
2022-09-14T07:59:31.293Z,13.71
2022-09-14T08:01:51.895Z,13.79
2022-09-14T08:04:19.055Z,13.86
2022-09-14T08:06:45.824Z,13.88
2022-09-14T08:09:12.650Z,13.93
2022-09-14T08:11:39.523Z,14.04
2022-09-14T08:14:11.951Z,14.03
2022-09-14T08:16:40.772Z,14.10
2022-09-14T08:19:15.816Z,14.04
2022-09-14T08:21:46.884Z,14.19
2022-09-14T08:24:17.889Z,14.20
2022-09-14T08:26:46.168Z,14.28
2022-09-14T08:29:14.906Z,14.36
2022-09-14T08:31:44.449Z,14.44
2022-09-14T08:34:12.087Z,14.51
2022-09-14T08:36:41.664Z,14.62
2022-09-14T08:39:11.147Z,14.79
2022-09-14T08:41:43.916Z,14.87
2022-09-14T08:44:43.515Z,14.90
2022-09-14T08:47:17.858Z,14.96
2022-09-14T08:49:48.114Z,15.12
2022-09-14T08:52:33.142Z,15.24
2022-09-14T08:55:31.247Z,15.34
2022-09-14T08:58:37.894Z,15.44
2022-09-14T09:01:20.519Z,15.58
2022-09-14T09:04:14.722Z,15.62
2022-09-14T09:06:58.239Z,15.71
2022-09-14T09:09:47.155Z,15.81
2022-09-14T09:12:22.373Z,15.93
2022-09-14T09:15:00.822Z,15.98
2022-09-14T09:17:39.414Z,16.05
2022-09-14T09:20:24.642Z,16.08
2022-09-14T09:23:12.659Z,16.05
2022-09-14T09:26:30.643Z,16.09
2022-09-14T09:29:00.500Z,16.02
2022-09-14T09:31:36.296Z,15.91
2022-09-14T09:34:04.074Z,15.81
2022-09-14T09:36:36.644Z,15.79
2022-09-14T09:39:05.434Z,15.78
2022-09-14T09:41:55.810Z,15.84
2022-09-14T09:44:22.620Z,15.82
2022-09-14T09:46:54.920Z,15.82
2022-09-14T09:49:23.367Z,15.69
2022-09-14T09:51:51.759Z,15.78
2022-09-14T09:54:25.596Z,15.68
2022-09-14T09:56:57.272Z,15.68
2022-09-14T09:59:38.145Z,15.63
2022-09-14T10:02:34.356Z,15.58
2022-09-14T10:05:32.658Z,15.62
2022-09-14T10:08:02.837Z,15.67
2022-09-14T10:10:36.102Z,15.73
2022-09-14T10:13:06.557Z,15.86
2022-09-14T10:15:36.706Z,15.87
2022-09-14T10:18:12.691Z,15.98
2022-09-14T10:21:07.468Z,16.06
2022-09-14T10:23:38.554Z,16.15
2022-09-14T10:26:14.472Z,16.15
2022-09-14T10:28:47.942Z,16.17
2022-09-14T10:31:20.540Z,16.25
2022-09-14T10:33:54.971Z,16.27
2022-09-14T10:36:44.069Z,16.46
2022-09-14T10:39:26.288Z,16.55
2022-09-14T10:42:00.734Z,16.61
2022-09-14T10:44:54.764Z,16.60
2022-09-14T10:47:49.812Z,16.57
2022-09-14T10:50:41.447Z,16.74
2022-09-14T10:53:37.401Z,16.72
2022-09-14T10:56:10.333Z,16.69
2022-09-14T10:59:24.466Z,16.75
2022-09-14T11:02:51.237Z,16.83
2022-09-14T11:05:24.380Z,16.80
2022-09-14T11:08:19.015Z,16.83
2022-09-14T11:11:16.461Z,16.77
2022-09-14T11:14:23.440Z,16.74
2022-09-14T11:17:24.128Z,16.63
2022-09-14T11:20:26.221Z,16.52
2022-09-14T11:23:29.108Z,16.55
2022-09-14T11:26:07.120Z,16.55
2022-09-14T11:28:56.787Z,16.51
2022-09-14T11:31:37.997Z,16.39
2022-09-14T11:34:20.274Z,16.41
2022-09-14T11:36:55.181Z,16.35
2022-09-14T11:39:37.079Z,16.40
2022-09-14T11:42:19.155Z,16.42
2022-09-14T11:44:59.163Z,16.45
2022-09-14T11:47:26.675Z,16.54
2022-09-14T11:50:20.018Z,16.54
2022-09-14T11:52:49.388Z,16.55
2022-09-14T11:55:18.533Z,16.61
2022-09-14T11:57:47.275Z,16.70
2022-09-14T12:00:23.908Z,16.75
2022-09-14T12:03:05.779Z,16.81
2022-09-14T12:05:34.421Z,16.77
2022-09-14T12:08:24.747Z,16.89
2022-09-14T12:11:25.188Z,16.92
2022-09-14T12:14:27.576Z,17.01
2022-09-14T12:17:22.613Z,17.05
2022-09-14T12:19:55.664Z,17.17
2022-09-14T12:22:34.959Z,17.18
2022-09-14T12:25:10.897Z,17.24
2022-09-14T12:27:40.520Z,17.39
2022-09-14T12:30:41.870Z,17.48
2022-09-14T12:33:37.504Z,17.54
2022-09-14T12:36:26.578Z,17.69
2022-09-14T12:38:53.349Z,17.70
2022-09-14T12:41:20.219Z,17.81
2022-09-14T12:43:49.774Z,17.88
2022-09-14T12:46:22.850Z,17.93
2022-09-14T12:48:49.808Z,17.95
2022-09-14T12:51:31.841Z,17.87
2022-09-14T12:53:58.781Z,17.82
2022-09-14T12:56:28.611Z,17.83
2022-09-14T12:59:40.167Z,17.85
2022-09-14T13:02:59.798Z,17.89
2022-09-14T13:05:30.219Z,17.93
2022-09-14T13:07:57.271Z,18.03
2022-09-14T13:10:37.225Z,18.16
2022-09-14T13:13:15.497Z,18.23
2022-09-14T13:16:04.233Z,18.28
2022-09-14T13:18:37.943Z,18.36
2022-09-14T13:21:19.098Z,18.45
2022-09-14T13:23:46.785Z,18.46
2022-09-14T13:26:21.005Z,18.44
2022-09-14T13:28:51.979Z,18.49
2022-09-14T13:31:31.306Z,18.52
2022-09-14T13:33:59.863Z,18.59
2022-09-14T13:36:37.431Z,18.63
2022-09-14T13:39:04.944Z,18.64
2022-09-14T13:41:32.684Z,18.69
2022-09-14T13:44:00.553Z,18.72
2022-09-14T13:46:28.119Z,18.76
2022-09-14T13:48:55.920Z,18.83
2022-09-14T13:51:26.463Z,18.76
2022-09-14T13:53:59.058Z,18.75
2022-09-14T13:56:31.348Z,18.84
2022-09-14T13:59:07.337Z,18.76
2022-09-14T14:01:39.809Z,18.83
2022-09-14T14:04:23.673Z,18.78
2022-09-14T14:07:27.687Z,18.73
2022-09-14T14:09:58.012Z,18.75
2022-09-14T14:12:39.669Z,18.63
2022-09-14T14:15:26.449Z,18.56
2022-09-14T14:17:54.587Z,18.57
2022-09-14T14:20:24.408Z,18.55
2022-09-14T14:23:22.235Z,18.50
2022-09-14T14:25:55.577Z,18.58
2022-09-14T14:28:30.554Z,18.61
2022-09-14T14:31:07.876Z,18.60
2022-09-14T14:33:37.301Z,18.55
2022-09-14T14:36:09.980Z,18.45
2022-09-14T14:38:37.227Z,18.35
2022-09-14T14:41:04.906Z,18.28
2022-09-14T14:43:32.012Z,18.17
2022-09-14T14:46:02.067Z,18.07
2022-09-14T14:48:29.820Z,18.00
2022-09-14T14:50:56.933Z,18.11
2022-09-14T14:53:25.343Z,17.96
2022-09-14T14:55:53.579Z,17.86
2022-09-14T14:58:22.305Z,17.63
2022-09-14T15:00:49.924Z,17.68
2022-09-14T15:03:19.136Z,17.62
2022-09-14T15:05:48.468Z,17.67
2022-09-14T15:08:20.023Z,17.62
2022-09-14T15:10:47.118Z,17.68
2022-09-14T15:13:14.103Z,17.66
2022-09-14T15:15:45.118Z,17.67
2022-09-14T15:18:11.946Z,17.60
2022-09-14T15:20:39.049Z,17.64
2022-09-14T15:23:06.235Z,17.63
2022-09-14T15:25:33.179Z,17.53
2022-09-14T15:28:00.248Z,17.45
2022-09-14T15:30:27.433Z,17.41
2022-09-14T15:32:54.344Z,17.34
2022-09-14T15:35:21.139Z,17.25
2022-09-14T15:37:48.648Z,17.21
2022-09-14T15:40:15.868Z,17.11
2022-09-14T15:42:43.260Z,17.04
2022-09-14T15:45:10.889Z,17.06
2022-09-14T15:47:37.853Z,17.06
2022-09-14T15:50:06.324Z,17.01
2022-09-14T15:52:36.915Z,16.70
2022-09-14T15:55:07.072Z,16.77
2022-09-14T15:57:34.265Z,16.78
2022-09-14T16:00:01.370Z,16.78
2022-09-14T16:02:28.345Z,16.82
2022-09-14T16:04:55.651Z,16.79
2022-09-14T16:07:23.951Z,16.80
2022-09-14T16:09:50.716Z,16.90
2022-09-14T16:12:17.664Z,16.86
2022-09-14T16:14:44.523Z,16.88
2022-09-14T16:17:11.821Z,16.93
2022-09-14T16:19:39.080Z,16.98
2022-09-14T16:22:06.250Z,17.00
2022-09-14T16:24:33.845Z,16.95
2022-09-14T16:27:01.063Z,16.94
2022-09-14T16:29:27.855Z,16.83
2022-09-14T16:31:55.136Z,16.91
2022-09-14T16:34:29.295Z,16.90
2022-09-14T16:36:58.973Z,16.90
2022-09-14T16:39:29.840Z,16.87
2022-09-14T16:41:57.071Z,16.91
2022-09-14T16:44:28.683Z,16.84
2022-09-14T16:46:58.016Z,16.90
2022-09-14T16:49:27.883Z,16.89
2022-09-14T16:51:56.510Z,16.80
2022-09-14T16:54:26.001Z,16.84
2022-09-14T16:56:57.237Z,16.80
2022-09-14T16:59:24.426Z,16.70
2022-09-14T17:01:54.618Z,16.72
2022-09-14T17:04:23.328Z,16.61
2022-09-14T17:06:51.928Z,16.62
2022-09-14T17:09:27.631Z,16.54
2022-09-14T17:11:55.883Z,16.45
2022-09-14T17:14:31.071Z,16.45
2022-09-14T17:16:58.959Z,16.40
2022-09-14T17:19:27.232Z,16.42
2022-09-14T17:21:54.964Z,16.32
2022-09-14T17:24:22.356Z,16.34
2022-09-14T17:26:49.841Z,16.32
2022-09-14T17:29:17.352Z,16.35
2022-09-14T17:31:45.936Z,16.28
2022-09-14T17:34:16.723Z,16.31
2022-09-14T17:36:44.881Z,16.32
2022-09-14T17:39:12.747Z,16.30
2022-09-14T17:41:41.485Z,16.30
2022-09-14T17:44:12.671Z,16.29
2022-09-14T17:46:48.144Z,16.32
2022-09-14T17:49:18.052Z,16.34
2022-09-14T17:51:45.473Z,16.29
2022-09-14T17:54:12.971Z,16.29
2022-09-14T17:56:40.243Z,16.24
2022-09-14T17:59:20.844Z,16.27
2022-09-14T18:01:49.548Z,16.15
2022-09-14T18:04:16.951Z,16.14
2022-09-14T18:06:47.392Z,16.11
2022-09-14T18:09:20.913Z,16.08
2022-09-14T18:11:50.208Z,16.11
2022-09-14T18:14:17.638Z,16.05
2022-09-14T18:16:45.387Z,16.10
2022-09-14T18:19:12.940Z,16.09
2022-09-14T18:21:39.918Z,16.05
2022-09-14T18:24:07.492Z,15.96
2022-09-14T18:26:34.535Z,16.00
2022-09-14T18:29:01.354Z,16.00
2022-09-14T18:31:28.326Z,15.92
2022-09-14T18:33:59.537Z,15.93
2022-09-14T18:36:29.422Z,15.90
2022-09-14T18:39:00.190Z,15.85
2022-09-14T18:41:34.143Z,15.81
2022-09-14T18:44:02.014Z,15.79
2022-09-14T18:46:29.457Z,15.87
2022-09-14T18:48:59.680Z,15.79
2022-09-14T18:51:28.567Z,15.77
2022-09-14T18:54:06.915Z,15.77
2022-09-14T18:56:36.351Z,15.77
2022-09-14T18:59:06.722Z,15.77
2022-09-14T19:01:35.658Z,15.83
2022-09-14T19:04:05.504Z,15.77
2022-09-14T19:06:34.484Z,15.70
2022-09-14T19:09:01.706Z,15.74
2022-09-14T19:11:30.833Z,15.68
2022-09-14T19:14:09.477Z,15.58
2022-09-14T19:16:38.816Z,15.62
2022-09-14T19:19:07.334Z,15.65
2022-09-14T19:21:34.386Z,15.59
2022-09-14T19:24:10.796Z,15.45
2022-09-14T19:26:48.923Z,15.46
2022-09-14T19:29:21.563Z,15.40
2022-09-14T19:31:51.790Z,15.38
2022-09-14T19:34:20.997Z,15.39
2022-09-14T19:36:48.535Z,15.36
2022-09-14T19:39:15.749Z,15.34
2022-09-14T19:41:42.509Z,15.39
2022-09-14T19:44:11.332Z,15.27
2022-09-14T19:46:39.897Z,15.28
2022-09-14T19:49:13.816Z,15.35
2022-09-14T19:51:40.904Z,15.29
2022-09-14T19:54:09.180Z,15.30
2022-09-14T19:56:36.674Z,15.29
2022-09-14T19:59:06.211Z,15.32
2022-09-14T20:01:35.689Z,15.25
2022-09-14T20:04:04.503Z,15.23
2022-09-14T20:06:38.287Z,15.25
2022-09-14T20:09:09.863Z,15.25
2022-09-14T20:11:39.573Z,15.29
2022-09-14T20:14:12.462Z,15.32
2022-09-14T20:16:59.523Z,15.25
2022-09-14T20:19:29.191Z,15.24
2022-09-14T20:21:56.663Z,15.23
2022-09-14T20:24:27.322Z,15.17
2022-09-14T20:26:58.372Z,15.22
2022-09-14T20:29:29.362Z,15.23
2022-09-14T20:31:57.188Z,15.21
2022-09-14T20:34:24.028Z,15.17
2022-09-14T20:36:52.656Z,15.21
2022-09-14T20:39:22.231Z,15.19
2022-09-14T20:41:49.819Z,15.17
2022-09-14T20:44:17.149Z,15.18
2022-09-14T20:46:45.184Z,15.19
2022-09-14T20:49:15.575Z,15.17
2022-09-14T20:51:43.127Z,15.14
2022-09-14T20:54:17.473Z,15.14
2022-09-14T20:56:46.359Z,15.14
2022-09-14T20:59:18.763Z,15.10
2022-09-14T21:01:49.559Z,15.11
2022-09-14T21:04:23.086Z,15.13
2022-09-14T21:06:53.000Z,15.14
2022-09-14T21:09:24.680Z,15.13
2022-09-14T21:11:53.057Z,15.08
2022-09-14T21:14:21.052Z,15.09
2022-09-14T21:16:50.882Z,15.03
2022-09-14T21:19:24.960Z,15.03
2022-09-14T21:21:52.429Z,15.08
2022-09-14T21:24:22.088Z,15.01
2022-09-14T21:26:48.993Z,14.98
2022-09-14T21:29:21.002Z,15.02
2022-09-14T21:31:48.951Z,15.08
2022-09-14T21:34:16.330Z,15.02
2022-09-14T21:36:47.000Z,15.06
2022-09-14T21:39:19.357Z,15.04
2022-09-14T21:41:46.419Z,14.98
2022-09-14T21:44:14.158Z,14.96
2022-09-14T21:46:41.897Z,14.96
2022-09-14T21:49:18.221Z,14.99
2022-09-14T21:51:45.109Z,14.93
2022-09-14T21:54:13.772Z,14.93
2022-09-14T21:56:44.849Z,14.91
2022-09-14T21:59:20.145Z,14.88
2022-09-14T22:01:48.356Z,14.89
2022-09-14T22:04:19.853Z,14.91
2022-09-14T22:06:47.571Z,14.86
2022-09-14T22:09:16.773Z,14.81
2022-09-14T22:11:43.727Z,14.84
2022-09-14T22:14:20.462Z,14.74
2022-09-14T22:16:48.961Z,14.78
2022-09-14T22:19:21.694Z,14.78
2022-09-14T22:21:49.554Z,14.81
2022-09-14T22:24:21.327Z,14.78
2022-09-14T22:26:50.461Z,14.76
2022-09-14T22:29:18.875Z,14.75
2022-09-14T22:31:47.856Z,14.77
2022-09-14T22:34:16.372Z,14.72
2022-09-14T22:36:44.030Z,14.70
2022-09-14T22:39:11.466Z,14.72
2022-09-14T22:41:39.147Z,14.64
2022-09-14T22:44:07.495Z,14.60
2022-09-14T22:46:35.638Z,14.62
2022-09-14T22:49:02.907Z,14.62
2022-09-14T22:51:30.531Z,14.57
2022-09-14T22:53:57.931Z,14.60
2022-09-14T22:56:29.831Z,14.53
2022-09-14T22:58:56.816Z,14.52
2022-09-14T23:01:35.109Z,14.56
2022-09-14T23:04:10.738Z,14.55
2022-09-14T23:06:45.488Z,14.58
2022-09-14T23:09:16.974Z,14.63
2022-09-14T23:11:44.896Z,14.58
2022-09-14T23:14:13.734Z,14.56
2022-09-14T23:16:41.548Z,14.54
2022-09-14T23:19:08.675Z,14.49
2022-09-14T23:21:36.022Z,14.55
2022-09-14T23:24:06.303Z,14.53
2022-09-14T23:26:34.326Z,14.56
2022-09-14T23:29:09.278Z,14.55
2022-09-14T23:31:36.451Z,14.54
2022-09-14T23:34:05.045Z,14.50
2022-09-14T23:36:31.967Z,14.50
2022-09-14T23:38:59.238Z,14.53
2022-09-14T23:41:27.611Z,14.52
2022-09-14T23:43:55.068Z,14.52
2022-09-14T23:46:22.840Z,14.49
2022-09-14T23:48:50.474Z,14.48
2022-09-14T23:51:17.685Z,14.42
2022-09-14T23:53:44.514Z,14.44
2022-09-14T23:56:11.849Z,14.44
2022-09-14T23:58:40.272Z,14.40
